Time;durP1;ratioP1;P1;durP2;ratioP2;P2;SDS_P1;SDS_P2;PMS_P1;PMS_P2;Temp;Humidity;BMP_temperature;BMP_pressure;BME280_temperature;BME280_humidity;BME280_pressure;Samples;Min_cycle;Max_cycle;Signal;HPM_P1;HPM_P2
2021/01/11 00:00:43;;;;;;;31.57;20.20;;;;;;;7.65;48.44;101284.46;1855210;77;21141;-77
2021/01/11 00:03:11;;;;;;;35.00;19.30;;;;;;;7.63;48.36;101274.77;1853500;77;21194;-79
2021/01/11 00:05:39;;;;;;;31.07;19.65;;;;;;;7.62;48.30;101273.53;1859115;77;21100;-77
2021/01/11 00:08:07;;;;;;;30.12;18.85;;;;;;;7.61;48.28;101263.84;1851498;77;21400;-80
2021/01/11 00:10:36;;;;;;;30.62;18.60;;;;;;;7.61;48.30;101250.52;1853073;77;21197;-76
2021/01/11 00:13:04;;;;;;;31.25;18.98;;;;;;;7.60;48.27;101241.67;1856712;77;21180;-79
2021/01/11 00:15:32;;;;;;;30.88;17.67;;;;;;;7.61;48.28;101239.36;1856853;77;21216;-79
2021/01/11 00:18:01;;;;;;;34.67;19.42;;;;;;;7.60;48.19;101239.49;1851869;77;21064;-78
2021/01/11 00:20:30;;;;;;;28.98;16.32;;;;;;;7.57;48.20;101241.91;1852472;77;21115;-79
2021/01/11 00:22:59;;;;;;;32.08;18.87;;;;;;;7.58;48.14;101251.59;1856886;77;21118;-77
2021/01/11 00:25:28;;;;;;;33.38;19.12;;;;;;;7.59;48.17;101245.80;1856778;77;21523;-79
2021/01/11 00:27:56;;;;;;;32.20;19.77;;;;;;;7.57;48.18;101243.23;1850045;77;21134;-79
2021/01/11 00:30:26;;;;;;;34.23;19.30;;;;;;;7.51;48.21;101245.05;1853499;77;21572;-77
2021/01/11 00:32:53;;;;;;;30.60;18.65;;;;;;;7.47;48.29;101256.92;1849980;77;21358;-78
2021/01/11 00:35:22;;;;;;;30.70;18.42;;;;;;;7.42;48.30;101260.43;1850928;77;21590;-78
2021/01/11 00:37:50;;;;;;;28.32;17.42;;;;;;;7.34;48.32;101262.34;1855436;77;21437;-78
2021/01/11 00:40:18;;;;;;;30.50;18.50;;;;;;;7.26;48.47;101257.23;1856538;77;21148;-77
2021/01/11 00:42:46;;;;;;;34.00;19.52;;;;;;;7.24;48.56;101257.84;1856724;77;21136;-81
2021/01/11 00:45:14;;;;;;;33.28;20.02;;;;;;;7.22;48.55;101261.09;1861304;77;21366;-79
2021/01/11 00:47:42;;;;;;;32.45;19.32;;;;;;;7.16;48.61;101265.08;1854769;77;21172;-79
2021/01/11 00:50:12;;;;;;;34.50;19.42;;;;;;;7.09;48.71;101266.04;1825309;77;21184;-81
2021/01/11 00:52:41;;;;;;;31.73;20.05;;;;;;;7.07;48.76;101271.95;1859654;77;21201;-77
2021/01/11 00:55:13;;;;;;;33.38;19.10;;;;;;;7.06;48.79;101271.59;1848518;77;21177;-78
2021/01/11 00:57:43;;;;;;;30.62;18.48;;;;;;;7.06;48.80;101264.08;1858399;77;21388;-76
2021/01/11 01:00:14;;;;;;;32.98;19.48;;;;;;;7.05;48.82;101261.91;1855338;77;22182;-76
2021/01/11 01:02:44;;;;;;;29.77;18.55;;;;;;;7.07;48.73;101255.96;1836151;77;21152;-78
2021/01/11 01:05:12;;;;;;;31.12;18.25;;;;;;;7.09;48.68;101258.05;1857873;77;21130;-78
2021/01/11 01:07:43;;;;;;;29.55;18.60;;;;;;;7.12;48.58;101259.12;1860447;77;21156;-78
2021/01/11 01:10:11;;;;;;;30.70;18.42;;;;;;;7.14;48.53;101266.17;1863235;77;21619;-76
2021/01/11 01:12:41;;;;;;;28.70;18.17;;;;;;;7.11;48.48;101261.43;1862965;77;21141;-76
2021/01/11 01:15:10;;;;;;;32.78;19.37;;;;;;;7.11;48.44;101260.09;1861264;77;21192;-75
2021/01/11 01:17:39;;;;;;;34.30;19.30;;;;;;;7.11;48.32;101256.10;1862644;77;21520;-77
2021/01/11 01:20:15;;;;;;;30.80;18.32;;;;;;;7.12;48.25;101252.47;1862934;77;21149;-77
2021/01/11 01:22:48;;;;;;;30.65;17.52;;;;;;;7.14;48.13;101246.20;1862672;77;21805;-75
2021/01/11 01:25:16;;;;;;;29.30;17.62;;;;;;;7.13;48.06;101244.02;1834943;77;21105;-76
2021/01/11 01:27:44;;;;;;;27.75;16.87;;;;;;;7.09;48.05;101243.87;1863202;77;21104;-76
2021/01/11 01:30:13;;;;;;;29.85;18.35;;;;;;;7.06;48.12;101239.62;1862987;77;21156;-76
2021/01/11 01:32:41;;;;;;;28.27;17.65;;;;;;;7.04;48.09;101244.23;1863674;77;21148;-79
2021/01/11 01:35:11;;;;;;;29.40;17.15;;;;;;;7.05;48.07;101241.92;1850688;77;22339;-81
2021/01/11 01:37:41;;;;;;;26.65;16.27;;;;;;;7.06;48.01;101250.27;1839942;77;21652;-77
2021/01/11 01:40:09;;;;;;;25.80;16.85;;;;;;;7.07;48.02;101259.11;1839954;77;21324;-75
2021/01/11 01:42:37;;;;;;;27.40;17.07;;;;;;;7.05;48.04;101268.56;1848884;77;21149;-78
2021/01/11 01:45:07;;;;;;;25.95;15.65;;;;;;;7.03;48.05;101266.97;1860432;77;21556;-77
2021/01/11 01:47:35;;;;;;;26.23;16.52;;;;;;;7.01;48.06;101269.75;1851736;77;21424;-76
2021/01/11 01:50:07;;;;;;;26.33;16.60;;;;;;;7.02;48.07;101263.94;1856088;77;21173;-75
2021/01/11 01:52:36;;;;;;;25.50;16.85;;;;;;;7.01;48.10;101264.43;1853791;77;21132;-78
2021/01/11 01:55:09;;;;;;;23.52;15.32;;;;;;;7.00;48.15;101273.87;1856745;77;21155;-80
2021/01/11 01:57:37;;;;;;;21.55;13.68;;;;;;;6.98;48.12;101272.64;1859854;77;21475;-80
2021/01/11 02:00:07;;;;;;;24.63;14.83;;;;;;;6.96;48.19;101277.25;1858165;77;21816;-80
2021/01/11 02:02:41;;;;;;;19.07;13.18;;;;;;;6.99;48.37;101277.48;1849388;77;21587;-82
2021/01/11 02:05:09;;;;;;;23.20;14.03;;;;;;;7.02;48.23;101283.92;1856650;77;21163;-76
2021/01/11 02:07:51;;;;;;;22.48;12.07;;;;;;;7.04;47.86;101286.85;1852141;77;21165;-76
2021/01/11 02:10:53;;;;;;;15.35;10.35;;;;;;;7.08;47.76;101285.63;1851835;77;21167;-76
2021/01/11 02:13:33;;;;;;;16.65;10.10;;;;;;;7.13;47.63;101290.64;1857194;77;21917;-77
2021/01/11 02:16:15;;;;;;;13.20;8.55;;;;;;;7.18;47.48;101282.30;1856546;76;21599;-77
2021/01/11 02:19:07;;;;;;;13.80;8.35;;;;;;;7.20;47.32;101283.86;1857401;76;21160;-81
2021/01/11 02:22:01;;;;;;;12.80;7.97;;;;;;;7.19;46.92;101289.32;1852937;77;21615;-79
2021/01/11 02:25:04;;;;;;;13.10;8.38;;;;;;;7.17;46.83;101281.42;1832603;78;21149;-79
2021/01/11 02:27:45;;;;;;;14.33;8.78;;;;;;;7.18;46.73;101295.63;1860940;76;21802;-78
2021/01/11 02:30:30;;;;;;;16.65;8.65;;;;;;;7.16;46.62;101293.05;1875587;76;21622;-77
2021/01/11 02:33:11;;;;;;;11.35;6.97;;;;;;;7.18;46.42;101283.14;1885942;75;21528;-75
2021/01/11 02:35:53;;;;;;;11.55;6.85;;;;;;;7.20;46.17;101278.53;1882914;75;21147;-76
2021/01/11 02:38:22;;;;;;;14.45;7.80;;;;;;;7.19;46.11;101280.84;1833696;78;21148;-77
2021/01/11 02:40:50;;;;;;;13.48;7.12;;;;;;;7.22;45.96;101277.08;1877487;76;21555;-78
2021/01/11 02:43:19;;;;;;;12.15;6.97;;;;;;;7.24;45.95;101272.50;1839039;77;21643;-79
2021/01/11 02:45:50;;;;;;;8.18;6.15;;;;;;;7.23;45.93;101266.81;1832475;78;21152;-78
2021/01/11 02:48:26;;;;;;;11.20;6.75;;;;;;;7.23;45.82;101278.31;1848734;77;21144;-78
2021/01/11 02:51:23;;;;;;;12.60;7.12;;;;;;;7.23;45.85;101282.80;1872892;75;21477;-79
2021/01/11 02:54:15;;;;;;;11.20;7.03;;;;;;;7.23;45.89;101282.80;1871389;76;21273;-77
2021/01/11 02:56:54;;;;;;;10.20;6.40;;;;;;;7.25;45.71;101291.51;1877838;75;21165;-78
2021/01/11 02:59:34;;;;;;;9.70;6.67;;;;;;;7.26;45.72;101283.88;1859297;75;21683;-76
2021/01/11 03:02:08;;;;;;;9.75;6.00;;;;;;;7.28;45.62;101280.63;1868729;76;21171;-80
2021/01/11 03:04:39;;;;;;;8.25;5.70;;;;;;;7.29;45.61;101276.99;1865295;75;21152;-76
2021/01/11 03:07:08;;;;;;;9.18;6.20;;;;;;;7.32;45.55;101271.44;1813496;77;21881;-78
2021/01/11 03:09:42;;;;;;;11.85;8.93;;;;;;;7.32;45.54;101274.95;1834205;78;21174;-77
2021/01/11 03:12:10;;;;;;;14.63;9.13;;;;;;;7.34;45.55;101277.00;1866614;76;21120;-77
2021/01/11 03:14:38;;;;;;;12.80;9.15;;;;;;;7.37;45.47;101278.59;1862317;76;21154;-76
2021/01/11 03:17:06;;;;;;;11.85;8.58;;;;;;;7.39;45.22;101288.64;1866360;76;21627;-76
2021/01/11 03:19:34;;;;;;;11.95;8.75;;;;;;;7.41;45.26;101303.20;1866293;76;21405;-78
2021/01/11 03:22:06;;;;;;;13.13;8.20;;;;;;;7.41;45.31;101310.71;1866395;76;21143;-79
2021/01/11 03:24:36;;;;;;;14.83;7.67;;;;;;;7.44;45.27;101312.27;1866042;76;21152;-80
2021/01/11 03:27:07;;;;;;;12.58;7.33;;;;;;;7.44;45.19;101321.12;1866201;76;21138;-77
2021/01/11 03:29:34;;;;;;;9.68;6.72;;;;;;;7.43;44.92;101314.09;1866276;76;21178;-80
2021/01/11 03:32:03;;;;;;;9.60;5.95;;;;;;;7.45;44.87;101320.63;1865659;76;21848;-81
2021/01/11 03:34:31;;;;;;;8.15;5.85;;;;;;;7.44;44.79;101319.78;1864286;75;21193;-77
2021/01/11 03:37:01;;;;;;;8.65;5.72;;;;;;;7.45;44.93;101324.63;1860144;76;21241;-76
2021/01/11 03:39:29;;;;;;;9.33;6.20;;;;;;;7.45;45.04;101330.84;1865489;76;21155;-76
2021/01/11 03:41:59;;;;;;;9.40;6.15;;;;;;;7.47;44.97;101340.04;1865626;76;21191;-80
2021/01/11 03:44:30;;;;;;;9.50;6.42;;;;;;;7.48;45.05;101339.91;1866342;76;21273;-81
2021/01/11 03:46:59;;;;;;;10.00;6.97;;;;;;;7.48;45.10;101331.07;1851120;76;21067;-79
2021/01/11 03:49:27;;;;;;;10.23;7.12;;;;;;;7.50;45.13;101331.34;1832860;78;21448;-76
2021/01/11 03:52:01;;;;;;;12.23;8.23;;;;;;;7.52;45.10;101329.39;1848568;76;21157;-77
2021/01/11 03:54:32;;;;;;;16.10;8.98;;;;;;;7.53;45.05;101316.91;1866124;75;21162;-79
2021/01/11 03:57:01;;;;;;;13.62;9.00;;;;;;;7.52;45.11;101318.72;1834077;77;21186;-77
2021/01/11 03:59:29;;;;;;;13.78;8.50;;;;;;;7.54;45.19;101322.59;1888123;75;21168;-78
2021/01/11 04:01:58;;;;;;;17.98;10.00;;;;;;;7.55;45.21;101334.98;1871175;76;21172;-76
2021/01/11 04:04:26;;;;;;;18.07;11.25;;;;;;;7.55;45.22;101338.50;1874437;76;21140;-80
2021/01/11 04:06:54;;;;;;;16.52;10.88;;;;;;;7.57;45.27;101340.55;1883317;75;21584;-80
2021/01/11 04:09:22;;;;;;;14.95;10.00;;;;;;;7.57;45.26;101339.22;1884261;75;21684;-76
2021/01/11 04:11:50;;;;;;;15.38;10.60;;;;;;;7.56;45.19;101344.67;1875728;75;21178;-78
2021/01/11 04:14:21;;;;;;;16.73;10.03;;;;;;;7.54;45.17;101341.25;1873577;75;21166;-76
2021/01/11 04:16:53;;;;;;;15.70;9.38;;;;;;;7.52;45.24;101341.87;1879258;75;21192;-76
2021/01/11 04:19:22;;;;;;;14.87;10.05;;;;;;;7.52;45.19;101337.88;1831055;78;21164;-77
2021/01/11 04:21:49;;;;;;;14.63;9.78;;;;;;;7.52;45.18;101336.05;1867852;75;21514;-79
2021/01/11 04:24:21;;;;;;;12.88;8.65;;;;;;;7.52;45.10;101336.05;1858075;76;20991;-79
2021/01/11 04:26:49;;;;;;;15.25;9.23;;;;;;;7.52;45.09;101338.72;1875331;76;21133;-79
2021/01/11 04:29:16;;;;;;;12.58;8.55;;;;;;;7.52;45.06;101337.38;1871243;75;21470;-77
2021/01/11 04:31:49;;;;;;;14.20;9.10;;;;;;;7.50;44.98;101340.66;1870909;75;21180;-79
2021/01/11 04:34:18;;;;;;;16.00;9.65;;;;;;;7.51;44.95;101341.52;1875123;75;21310;-78
2021/01/11 04:36:49;;;;;;;15.13;10.30;;;;;;;7.49;44.98;101332.77;1835585;76;21186;-79
2021/01/11 04:39:19;;;;;;;21.77;14.25;;;;;;;7.48;44.99;101342.58;1830870;77;21667;-80
2021/01/11 04:41:47;;;;;;;14.70;8.65;;;;;;;7.48;44.90;101343.91;1831581;78;21152;-76
2021/01/11 04:44:14;;;;;;;14.70;8.75;;;;;;;7.48;44.79;101337.25;1820498;78;21109;-77
2021/01/11 04:46:43;;;;;;;15.40;9.43;;;;;;;7.49;44.75;101331.43;1856461;77;21170;-78
2021/01/11 04:49:12;;;;;;;14.00;8.33;;;;;;;7.51;44.65;101324.19;1816679;77;21500;-78
2021/01/11 04:51:40;;;;;;;14.33;8.58;;;;;;;7.50;44.60;101317.16;1851511;76;21192;-76
2021/01/11 04:54:08;;;;;;;11.65;7.62;;;;;;;7.48;44.58;101311.92;1833176;77;21583;-76
2021/01/11 04:56:40;;;;;;;12.45;7.67;;;;;;;7.47;44.58;101311.56;1840367;77;21615;-80
2021/01/11 04:59:08;;;;;;;11.73;8.45;;;;;;;7.48;44.62;101306.59;1843864;77;21361;-78
2021/01/11 05:01:37;;;;;;;12.45;8.83;;;;;;;7.47;44.60;101310.23;1843834;77;21050;-76
2021/01/11 05:04:05;;;;;;;13.20;8.30;;;;;;;7.47;44.52;101324.89;1787513;77;21830;-77
2021/01/11 05:06:32;;;;;;;13.80;9.00;;;;;;;7.44;44.62;101330.94;1843689;77;21177;-78
2021/01/11 05:09:08;;;;;;;17.52;10.08;;;;;;;7.42;44.54;101332.39;1813700;77;21215;-77
2021/01/11 05:11:36;;;;;;;18.82;11.93;;;;;;;7.45;44.44;101325.51;1855383;77;21202;-77
2021/01/11 05:14:04;;;;;;;12.50;8.83;;;;;;;7.41;44.59;101309.86;1859645;77;21160;-77
2021/01/11 05:16:32;;;;;;;11.60;8.55;;;;;;;7.40;44.56;101310.81;1859863;77;21168;-78
2021/01/11 05:19:25;;;;;;;13.83;9.08;;;;;;;7.38;44.54;101312.27;1859688;77;21156;-76
2021/01/11 05:21:53;;;;;;;13.68;8.63;;;;;;;7.37;44.53;101323.41;1859221;77;21167;-75
2021/01/11 05:24:38;;;;;;;16.35;11.05;;;;;;;7.36;44.49;101328.87;1859232;77;21194;-77
2021/01/11 05:27:10;;;;;;;21.62;13.83;;;;;;;7.35;44.51;101340.47;1859188;77;21164;-77
2021/01/11 05:29:39;;;;;;;15.93;10.93;;;;;;;7.34;44.53;101351.62;1860132;77;21144;-79
2021/01/11 05:32:08;;;;;;;13.00;8.13;;;;;;;7.33;44.52;101349.93;1859952;77;21133;-75
2021/01/11 05:34:52;;;;;;;9.65;6.33;;;;;;;7.33;44.49;101345.08;1825976;77;21182;-80
2021/01/11 05:40:19;;;;;;;10.58;6.70;;;;;;;7.38;44.32;101343.77;1814983;79;22785;-77
2021/01/11 05:42:55;;;;;;;13.68;7.95;;;;;;;7.33;44.25;101349.08;1781472;80;21417;-80
2021/01/11 05:45:34;;;;;;;8.70;6.53;;;;;;;7.34;44.17;101354.77;1777378;80;21368;-77
2021/01/11 05:48:05;;;;;;;8.20;5.58;;;;;;;7.32;44.11;101344.23;1780420;79;21398;-78
2021/01/11 05:50:49;;;;;;;9.80;6.20;;;;;;;7.32;44.11;101354.05;1759164;80;21121;-78
2021/01/11 05:53:21;;;;;;;11.83;7.03;;;;;;;7.30;44.08;101359.96;1752864;81;21130;-79
2021/01/11 05:55:50;;;;;;;8.55;5.35;;;;;;;7.30;44.10;101371.95;1782952;79;21129;-79
2021/01/11 05:58:18;;;;;;;7.62;4.70;;;;;;;7.29;43.96;101369.77;1787627;80;21376;-78
2021/01/11 06:00:46;;;;;;;9.20;5.05;;;;;;;7.27;44.01;101372.20;1794480;80;21615;-76
2021/01/11 06:03:14;;;;;;;7.00;5.05;;;;;;;7.26;44.02;101373.14;1791910;80;21478;-76
2021/01/11 06:05:43;;;;;;;8.30;5.70;;;;;;;7.25;43.92;101366.13;1776414;80;21134;-74
2021/01/11 06:08:14;;;;;;;8.55;5.25;;;;;;;7.25;43.85;101372.30;1768328;80;21193;-78
2021/01/11 06:10:45;;;;;;;7.80;5.03;;;;;;;7.24;43.80;101367.94;1750038;80;21401;-74
2021/01/11 06:13:13;;;;;;;7.40;5.53;;;;;;;7.26;43.65;101363.33;1803371;79;21214;-77
2021/01/11 06:15:42;;;;;;;8.13;5.28;;;;;;;7.27;43.67;101358.87;1791874;79;21157;-77
2021/01/11 06:18:14;;;;;;;6.78;5.17;;;;;;;7.27;43.61;101361.55;1757309;80;21515;-77
2021/01/11 06:20:44;;;;;;;8.90;5.10;;;;;;;7.25;43.57;101362.97;1804678;79;21671;-74
2021/01/11 06:23:25;;;;;;;7.72;4.97;;;;;;;7.25;43.49;101364.79;1778998;79;21797;-79
2021/01/11 06:25:53;;;;;;;8.80;5.70;;;;;;;7.25;43.39;101365.64;1787826;79;21584;-77
2021/01/11 06:28:33;;;;;;;8.58;5.80;;;;;;;7.25;43.38;101364.79;1781095;79;21446;-77
2021/01/11 06:31:14;;;;;;;8.63;6.53;;;;;;;7.25;43.32;101363.45;1777627;79;21377;-76
2021/01/11 06:33:43;;;;;;;10.35;7.03;;;;;;;7.22;43.29;101358.34;1785110;79;21085;-77
2021/01/11 06:36:31;;;;;;;10.28;6.35;;;;;;;7.22;43.32;101357.02;1773035;80;21320;-78
2021/01/11 06:39:07;;;;;;;9.23;6.37;;;;;;;7.22;43.27;101358.34;1776474;80;21637;-76
2021/01/11 06:41:35;;;;;;;8.50;5.28;;;;;;;7.22;43.20;101358.34;1775499;80;21130;-78
2021/01/11 06:44:09;;;;;;;7.95;5.53;;;;;;;7.22;43.14;101355.68;1767299;79;21110;-78
2021/01/11 06:46:44;;;;;;;8.55;5.65;;;;;;;7.22;43.09;101355.68;1779762;79;21090;-80
2021/01/11 06:49:28;;;;;;;7.78;5.90;;;;;;;7.22;43.00;101353.02;1780183;79;22229;-76
2021/01/11 06:52:09;;;;;;;7.08;5.03;;;;;;;7.22;42.95;101358.34;1766751;80;21109;-77
2021/01/11 06:54:43;;;;;;;6.67;4.55;;;;;;;7.21;42.77;101355.32;1763689;80;21108;-76
2021/01/11 06:57:17;;;;;;;8.75;4.95;;;;;;;7.21;42.88;101361.50;1752827;80;21693;-75
2021/01/11 06:59:51;;;;;;;8.45;5.55;;;;;;;7.22;42.90;101364.55;1758901;80;21119;-79
2021/01/11 07:02:25;;;;;;;14.83;8.48;;;;;;;7.29;42.77;101372.92;1761669;80;21272;-78
2021/01/11 07:04:54;;;;;;;22.35;12.05;;;;;;;7.32;42.67;101366.05;1760720;80;21101;-78
2021/01/11 07:07:24;;;;;;;18.23;9.53;;;;;;;7.37;42.54;101360.73;1758169;80;21108;-76
2021/01/11 07:09:59;;;;;;;16.45;9.03;;;;;;;7.41;42.44;101354.69;1790439;79;21098;-78
2021/01/11 07:12:27;;;;;;;11.33;7.12;;;;;;;7.50;42.21;101363.81;1782626;79;21089;-76
2021/01/11 07:15:04;;;;;;;14.78;7.72;;;;;;;7.55;42.05;101358.48;1784249;80;21439;-79
2021/01/11 07:17:36;;;;;;;7.47;5.25;;;;;;;7.58;41.93;101362.23;1760932;80;21142;-77
2021/01/11 07:20:13;;;;;;;8.78;5.12;;;;;;;7.59;41.77;101362.63;1773191;80;21110;-75
2021/01/11 07:22:40;;;;;;;5.62;4.22;;;;;;;7.59;41.70;101365.29;1735565;80;21647;-76
2021/01/11 07:25:20;;;;;;;12.85;5.28;;;;;;;7.61;41.67;101369.16;1756178;80;22040;-77
2021/01/11 07:28:01;;;;;;;6.50;5.10;;;;;;;7.63;41.62;101372.09;1769524;80;21148;-75
2021/01/11 07:30:34;;;;;;;7.72;4.78;;;;;;;7.61;41.46;101370.02;1760686;80;21153;-77
2021/01/11 07:33:11;;;;;;;6.85;5.20;;;;;;;7.62;41.40;101371.70;1777703;80;21116;-78
2021/01/11 07:35:41;;;;;;;10.40;4.83;;;;;;;7.61;41.49;101367.34;1751945;80;21560;-78
2021/01/11 07:38:12;;;;;;;9.50;6.08;;;;;;;7.60;41.49;101365.66;1772227;80;21102;-77
2021/01/11 07:40:40;;;;;;;8.48;5.58;;;;;;;7.60;41.55;101360.32;1761798;80;21158;-77
2021/01/11 07:43:10;;;;;;;9.38;6.20;;;;;;;7.61;41.60;101358.50;1781656;79;20994;-79
2021/01/11 07:45:39;;;;;;;11.43;7.05;;;;;;;7.62;41.45;101356.19;1783223;79;21102;-77
2021/01/11 07:48:09;;;;;;;11.65;8.23;;;;;;;7.63;41.40;101359.25;1785903;79;21135;-79
2021/01/11 07:50:38;;;;;;;9.60;6.60;;;;;;;7.66;41.44;101358.14;1783655;79;21384;-79
2021/01/11 07:53:06;;;;;;;7.72;4.87;;;;;;;7.68;41.41;101368.23;1787007;78;21360;-78
2021/01/11 07:55:34;;;;;;;7.17;4.33;;;;;;;7.70;41.35;101372.95;1781780;80;21222;-77
2021/01/11 07:58:02;;;;;;;6.95;4.47;;;;;;;7.73;41.37;101371.39;1784431;79;21196;-77
2021/01/11 08:00:32;;;;;;;6.45;4.37;;;;;;;7.76;41.43;101369.80;1763935;80;21187;-77
2021/01/11 08:03:00;;;;;;;5.62;4.08;;;;;;;7.82;41.37;101368.02;1770722;79;21180;-78
2021/01/11 08:05:30;;;;;;;5.65;4.55;;;;;;;7.85;41.25;101355.75;1773207;79;22487;-77
2021/01/11 08:08:06;;;;;;;7.03;5.22;;;;;;;7.89;41.20;101361.22;1761265;80;21113;-77
2021/01/11 08:10:34;;;;;;;7.95;5.65;;;;;;;7.96;41.21;101367.80;1768036;80;21133;-78
2021/01/11 08:13:06;;;;;;;5.78;5.08;;;;;;;8.04;41.22;101370.72;1761150;80;21157;-77
2021/01/11 08:15:33;;;;;;;6.42;4.62;;;;;;;8.12;41.04;101376.77;1764151;80;21120;-79
2021/01/11 08:18:04;;;;;;;6.40;4.92;;;;;;;8.20;40.94;101382.86;1776973;79;23154;-79
2021/01/11 08:20:32;;;;;;;8.18;4.15;;;;;;;8.26;40.77;101385.03;1775735;79;22333;-76
2021/01/11 08:23:09;;;;;;;7.15;4.47;;;;;;;8.32;40.61;101388.58;1779230;79;21137;-75
2021/01/11 08:25:37;;;;;;;6.03;4.87;;;;;;;8.33;40.38;101391.60;1776414;79;21100;-76
2021/01/11 08:28:08;;;;;;;11.83;6.30;;;;;;;8.35;40.22;101390.98;1786658;79;21659;-77
2021/01/11 08:30:36;;;;;;;9.28;6.97;;;;;;;8.34;40.40;101389.29;1754449;79;22051;-78
2021/01/11 08:33:07;;;;;;;14.47;8.93;;;;;;;8.33;40.48;101396.45;1761799;80;21145;-77
2021/01/11 08:35:36;;;;;;;9.45;6.58;;;;;;;8.33;40.47;101388.45;1745797;80;21117;-77
2021/01/11 08:38:08;;;;;;;8.35;5.78;;;;;;;8.36;40.47;101393.59;1767189;80;21104;-78
2021/01/11 08:40:38;;;;;;;8.75;5.53;;;;;;;8.39;40.40;101389.31;1778056;79;21094;-77
2021/01/11 08:43:19;;;;;;;7.42;5.08;;;;;;;8.43;40.33;101395.27;1759928;80;21368;-77
2021/01/11 08:45:45;;;;;;;7.22;4.60;;;;;;;8.49;40.28;101385.42;1790754;79;21121;-77
2021/01/11 08:48:15;;;;;;;7.22;4.50;;;;;;;8.53;40.30;101382.87;1761847;80;21132;-78
2021/01/11 08:50:56;;;;;;;5.67;4.30;;;;;;;8.56;40.24;101382.64;1764164;80;21110;-78
2021/01/11 08:53:37;;;;;;;6.03;4.62;;;;;;;8.57;40.12;101383.00;1790484;79;21952;-78
2021/01/11 08:56:09;;;;;;;7.33;5.05;;;;;;;8.58;40.10;101383.39;1789354;79;22289;-78
2021/01/11 08:58:47;;;;;;;6.95;4.80;;;;;;;8.57;40.12;101380.33;1773270;79;21145;-78
2021/01/11 09:01:25;;;;;;;6.35;4.05;;;;;;;8.57;40.10;101388.83;1772675;80;21185;-77
2021/01/11 09:03:56;;;;;;;6.45;4.67;;;;;;;8.54;40.09;101388.61;1762695;80;21116;-76
2021/01/11 09:06:44;;;;;;;7.47;5.22;;;;;;;8.54;40.05;101381.94;1791451;79;21114;-77
2021/01/11 09:09:17;;;;;;;7.08;4.80;;;;;;;8.52;40.21;101378.52;1788790;79;21205;-76
2021/01/11 09:11:46;;;;;;;8.60;5.08;;;;;;;8.52;40.38;101383.02;1789410;79;21117;-78
2021/01/11 09:14:19;;;;;;;6.50;5.05;;;;;;;8.48;40.36;101375.73;1766681;79;21086;-78
2021/01/11 09:16:52;;;;;;;7.60;4.92;;;;;;;8.47;40.27;101370.52;1775515;79;21112;-77
2021/01/11 09:19:23;;;;;;;8.13;5.58;;;;;;;8.45;40.50;101364.44;1783217;79;21132;-78
2021/01/11 09:22:14;;;;;;;7.37;4.60;;;;;;;8.46;40.55;101368.83;1752277;80;21428;-80
2021/01/11 09:24:39;;;;;;;8.68;4.97;;;;;;;8.47;40.57;101366.52;1769740;79;21538;-78
2021/01/11 09:27:07;;;;;;;7.12;5.72;;;;;;;8.44;40.35;101365.41;1777952;79;21118;-77
2021/01/11 09:29:37;;;;;;;7.85;5.60;;;;;;;8.42;40.44;101365.55;1777110;79;21113;-78
2021/01/11 09:32:05;;;;;;;6.90;4.80;;;;;;;8.41;40.49;101374.53;1776395;79;21092;-78
2021/01/11 09:34:36;;;;;;;8.05;5.75;;;;;;;8.37;40.44;101371.25;1780214;79;21616;-78
2021/01/11 09:37:05;;;;;;;7.05;5.03;;;;;;;8.37;40.61;101370.41;1771829;79;21568;-78
2021/01/11 09:39:33;;;;;;;6.85;5.33;;;;;;;8.39;40.73;101366.63;1733880;79;21113;-79
2021/01/11 09:42:00;;;;;;;8.33;5.22;;;;;;;8.41;40.74;101371.86;1773003;79;21088;-78
2021/01/11 09:44:29;;;;;;;8.68;6.17;;;;;;;8.41;40.85;101363.01;1776706;79;21171;-79
2021/01/11 09:46:58;;;;;;;8.60;6.08;;;;;;;8.41;40.90;101361.19;1773061;79;21369;-78
2021/01/11 09:49:25;;;;;;;9.18;5.47;;;;;;;8.40;40.95;101356.79;1767827;79;21566;-82
2021/01/11 09:51:54;;;;;;;8.15;5.50;;;;;;;8.42;41.03;101358.87;1752342;79;21105;-76
2021/01/11 09:54:23;;;;;;;7.33;5.67;;;;;;;8.43;41.10;101351.22;1776052;79;21137;-81
2021/01/11 09:56:57;;;;;;;9.85;5.80;;;;;;;8.44;41.06;101352.06;1773483;79;21582;-77
2021/01/11 09:59:25;;;;;;;9.40;6.17;;;;;;;8.47;41.08;101354.50;1755969;79;21360;-79
2021/01/11 10:01:54;;;;;;;8.50;6.00;;;;;;;8.51;40.98;101360.80;1780483;79;21161;-79
2021/01/11 10:04:22;;;;;;;7.85;5.72;;;;;;;8.52;40.94;101355.83;1762285;79;22010;-79
2021/01/11 10:06:53;;;;;;;9.70;6.17;;;;;;;8.52;40.83;101352.30;1797912;79;21097;-79
2021/01/11 10:09:24;;;;;;;8.68;5.22;;;;;;;8.50;40.84;101349.77;1764722;80;21101;-79
2021/01/11 10:11:54;;;;;;;8.15;5.87;;;;;;;8.50;40.93;101352.44;1764318;80;22376;-77
2021/01/11 10:14:22;;;;;;;7.95;6.10;;;;;;;8.53;40.97;101354.84;1781444;79;21144;-78
2021/01/11 10:16:50;;;;;;;7.67;5.70;;;;;;;8.54;41.03;101351.69;1768795;80;21432;-78
2021/01/11 10:19:24;;;;;;;8.10;5.60;;;;;;;8.56;41.10;101346.59;1768955;80;21122;-80
2021/01/11 10:21:53;;;;;;;9.08;5.90;;;;;;;8.59;41.06;101349.03;1766781;80;21348;-80
2021/01/11 10:24:22;;;;;;;7.28;4.90;;;;;;;8.60;41.05;101349.39;1767092;79;21453;-79
2021/01/11 10:26:51;;;;;;;9.08;5.47;;;;;;;8.61;41.05;101344.89;1777774;79;21126;-77
2021/01/11 10:29:23;;;;;;;7.97;5.08;;;;;;;8.62;40.97;101338.08;1771338;80;21142;-78
2021/01/11 10:31:52;;;;;;;8.15;5.70;;;;;;;8.62;40.92;101338.57;1768447;79;21153;-78
2021/01/11 10:34:21;;;;;;;13.00;7.70;;;;;;;8.59;40.92;101344.18;1770785;79;21108;-78
2021/01/11 10:36:50;;;;;;;8.35;5.90;;;;;;;8.57;40.95;101336.27;1780504;79;21159;-76
2021/01/11 10:39:26;;;;;;;8.93;5.78;;;;;;;8.55;40.96;101335.56;1773305;80;21572;-77
2021/01/11 10:41:56;;;;;;;9.43;5.85;;;;;;;8.53;41.02;101338.83;1778028;79;21132;-79
2021/01/11 10:44:24;;;;;;;9.33;6.28;;;;;;;8.50;41.07;101341.77;1768153;79;21146;-77
2021/01/11 10:46:54;;;;;;;7.47;5.72;;;;;;;8.48;41.08;101344.17;1773435;79;21113;-75
2021/01/11 10:49:22;;;;;;;9.63;5.40;;;;;;;8.46;41.20;101349.65;1774401;79;21371;-76
2021/01/11 10:51:49;;;;;;;9.55;5.53;;;;;;;8.44;41.25;101347.57;1774907;79;21168;-77
2021/01/11 10:54:17;;;;;;;6.33;4.58;;;;;;;8.42;41.20;101351.35;1749461;80;21117;-76
2021/01/11 10:56:45;;;;;;;7.28;4.90;;;;;;;8.40;41.25;101355.45;1774043;79;21102;-77
2021/01/11 10:59:13;;;;;;;7.78;5.17;;;;;;;8.37;41.29;101354.39;1790408;79;21086;-77
2021/01/11 11:01:43;;;;;;;6.78;4.72;;;;;;;8.33;41.29;101348.89;1759958;80;22056;-78
2021/01/11 11:04:11;;;;;;;7.80;4.80;;;;;;;8.30;41.38;101348.64;1787599;79;21126;-79
2021/01/11 11:06:39;;;;;;;7.95;4.53;;;;;;;8.28;41.38;101357.27;1787127;79;21123;-79
2021/01/11 11:09:07;;;;;;;7.75;5.22;;;;;;;8.25;41.43;101362.84;1763916;79;21109;-77
2021/01/11 11:11:36;;;;;;;8.35;5.42;;;;;;;8.23;41.56;101359.94;1779555;79;21090;-79
2021/01/11 11:14:04;;;;;;;6.97;5.20;;;;;;;8.23;41.62;101357.27;1793985;79;21367;-77
2021/01/11 11:16:35;;;;;;;7.72;5.22;;;;;;;8.22;41.50;101358.22;1789243;78;21133;-78
2021/01/11 11:19:05;;;;;;;7.12;4.95;;;;;;;8.20;41.36;101350.34;1797346;78;21500;-79
2021/01/11 11:21:36;;;;;;;9.15;5.58;;;;;;;8.18;41.29;101355.45;1784736;79;21181;-80
2021/01/11 11:24:06;;;;;;;7.33;4.83;;;;;;;8.17;41.20;101356.40;1758989;80;21214;-78
2021/01/11 11:26:34;;;;;;;11.75;5.25;;;;;;;8.17;41.17;101355.06;1769999;80;21237;-79
2021/01/11 11:29:10;;;;;;;7.62;5.42;;;;;;;8.17;41.08;101347.06;1753396;80;21201;-79
2021/01/11 11:31:39;;;;;;;7.45;5.10;;;;;;;8.15;40.97;101349.86;1749598;80;21188;-78
2021/01/11 11:34:14;;;;;;;6.03;4.62;;;;;;;8.16;40.91;101352.04;1761386;80;21219;-77
2021/01/11 11:36:42;;;;;;;5.72;4.20;;;;;;;8.16;40.88;101350.70;1751695;80;21189;-79
2021/01/11 11:39:12;;;;;;;8.30;5.20;;;;;;;8.14;40.80;101345.02;1756243;80;21382;-78
2021/01/11 11:41:41;;;;;;;7.17;4.97;;;;;;;8.16;40.83;101349.38;1795994;79;21133;-77
2021/01/11 11:44:10;;;;;;;8.18;5.28;;;;;;;8.14;40.84;101358.36;1754327;80;21213;-81
2021/01/11 11:46:38;;;;;;;8.85;5.62;;;;;;;8.13;40.90;101360.66;1794835;79;21101;-79
2021/01/11 11:49:05;;;;;;;9.18;5.55;;;;;;;8.13;40.88;101355.81;1783741;79;21086;-77